Time;durP1;ratioP1;P1;durP2;ratioP2;P2;SDS_P1;SDS_P2;PMS_P1;PMS_P2;Temp;Humidity;BMP_temperature;BMP_pressure;BME280_temperature;BME280_humidity;BME280_pressure;Samples;Min_cycle;Max_cycle;Signal;HPM_P1;HPM_P2
2023/08/09 00:00:11;;;;;;;5.87;4.13;;;;;;;13.98;100.00;100364.13;679066;29;910;-66
2023/08/09 00:00:32;;;;;;;6.18;4.25;;;;;;;13.92;100.00;100362.50;677489;29;949;-66
2023/08/09 00:00:53;;;;;;;7.18;3.78;;;;;;;13.99;100.00;100357.97;678948;28;4436;-67
2023/08/09 00:01:14;;;;;;;7.25;3.72;;;;;;;13.98;100.00;100361.50;677888;29;1001;-65
2023/08/09 00:01:35;;;;;;;7.68;4.10;;;;;;;13.99;100.00;100363.25;677185;29;1158;-67
2023/08/09 00:02:03;;;;;;;6.13;4.18;;;;;;;13.89;100.00;100367.84;679596;29;703;-66
2023/08/09 00:02:24;;;;;;;6.20;4.17;;;;;;;13.83;100.00;100362.75;679561;29;1065;-66
2023/08/09 00:02:44;;;;;;;6.95;4.10;;;;;;;13.78;100.00;100359.34;677843;29;1077;-66
2023/08/09 00:03:04;;;;;;;6.00;3.90;;;;;;;13.76;100.00;100356.78;679778;29;1033;-67
2023/08/09 00:03:25;;;;;;;5.60;3.80;;;;;;;13.85;100.00;100366.19;677838;29;838;-66
2023/08/09 00:03:45;;;;;;;6.53;4.22;;;;;;;13.91;100.00;100363.41;676923;28;4388;-66
2023/08/09 00:04:05;;;;;;;7.07;4.10;;;;;;;13.88;100.00;100360.84;679923;29;731;-67
2023/08/09 00:04:26;;;;;;;6.63;3.80;;;;;;;13.88;100.00;100358.22;678757;29;1044;-67
2023/08/09 00:04:49;;;;;;;7.00;4.00;;;;;;;13.87;100.00;100364.38;679456;29;1429;-66
2023/08/09 00:05:09;;;;;;;6.43;4.22;;;;;;;13.85;100.00;100371.44;679314;29;786;-66
2023/08/09 00:05:30;;;;;;;6.40;4.30;;;;;;;13.89;100.00;100362.59;677847;29;907;-65
2023/08/09 00:05:50;;;;;;;6.80;4.33;;;;;;;13.91;100.00;100365.19;679560;29;892;-66
2023/08/09 00:06:11;;;;;;;6.43;3.67;;;;;;;13.85;100.00;100366.19;680092;29;975;-66
2023/08/09 00:06:31;;;;;;;5.73;3.60;;;;;;;13.80;100.00;100360.16;678561;29;1033;-66
2023/08/09 00:06:51;;;;;;;6.03;3.90;;;;;;;13.77;100.00;100358.47;678362;29;5287;-65
2023/08/09 00:07:12;;;;;;;6.43;3.77;;;;;;;13.76;100.00;100362.03;679688;29;1404;-65
2023/08/09 00:07:32;;;;;;;7.17;4.20;;;;;;;13.84;100.00;100366.22;677633;29;1161;-66
2023/08/09 00:07:52;;;;;;;6.55;4.10;;;;;;;13.82;100.00;100371.53;677832;29;1237;-67
2023/08/09 00:08:13;;;;;;;6.57;3.83;;;;;;;13.79;100.00;100361.09;678780;29;822;-67
2023/08/09 00:08:33;;;;;;;6.03;3.75;;;;;;;13.82;100.00;100368.91;678161;29;1020;-68
2023/08/09 00:08:54;;;;;;;7.57;4.03;;;;;;;13.86;100.00;100364.41;678323;29;969;-66
2023/08/09 00:09:14;;;;;;;7.28;4.10;;;;;;;13.88;100.00;100365.25;680008;29;933;-66
2023/08/09 00:09:34;;;;;;;6.97;3.80;;;;;;;13.85;100.00;100363.56;677846;29;1324;-67
2023/08/09 00:09:55;;;;;;;6.60;3.70;;;;;;;13.86;100.00;100362.66;677957;28;4392;-67
2023/08/09 00:10:15;;;;;;;6.25;3.90;;;;;;;13.84;100.00;100363.59;677959;29;937;-67
2023/08/09 00:10:36;;;;;;;6.53;3.70;;;;;;;13.78;100.00;100365.47;678565;29;1048;-66
2023/08/09 00:10:56;;;;;;;7.10;3.90;;;;;;;13.78;100.00;100361.97;678241;29;774;-68
2023/08/09 00:11:17;;;;;;;5.93;3.80;;;;;;;13.75;100.00;100362.06;678950;29;941;-67
2023/08/09 00:11:37;;;;;;;5.70;3.78;;;;;;;13.74;100.00;100360.31;677353;29;1356;-68
2023/08/09 00:11:57;;;;;;;6.37;3.77;;;;;;;13.73;100.00;100361.22;678525;29;755;-65
2023/08/09 00:12:18;;;;;;;5.93;3.72;;;;;;;13.71;100.00;100365.66;678339;29;941;-66
2023/08/09 00:12:38;;;;;;;5.70;3.90;;;;;;;13.67;100.00;100358.75;678430;29;1051;-67
2023/08/09 00:12:59;;;;;;;6.60;3.93;;;;;;;13.65;100.00;100364.00;678074;29;5278;-67
2023/08/09 00:13:19;;;;;;;6.27;3.67;;;;;;;13.64;100.00;100359.66;678003;29;858;-67
2023/08/09 00:13:39;;;;;;;6.60;3.90;;;;;;;13.72;100.00;100362.09;677884;29;1022;-67
2023/08/09 00:14:00;;;;;;;6.60;4.10;;;;;;;13.79;100.00;100358.47;678065;29;893;-66
2023/08/09 00:14:20;;;;;;;7.10;4.10;;;;;;;13.88;100.00;100357.38;677685;29;956;-67
2023/08/09 00:14:41;;;;;;;6.95;3.92;;;;;;;13.84;100.00;100364.47;678520;29;1899;-66
2023/08/09 00:15:01;;;;;;;5.93;4.00;;;;;;;13.80;100.00;100354.91;677557;28;1498;-67
2023/08/09 00:15:22;;;;;;;5.57;3.80;;;;;;;13.83;100.00;100359.25;677489;29;968;-66
2023/08/09 00:15:42;;;;;;;5.83;3.97;;;;;;;13.83;100.00;100357.50;677255;29;4438;-66
2023/08/09 00:16:02;;;;;;;5.78;3.80;;;;;;;13.78;100.00;100348.84;677766;29;821;-66
2023/08/09 00:16:23;;;;;;;6.47;3.90;;;;;;;13.80;100.00;100360.16;677473;29;2473;-67
2023/08/09 00:16:43;;;;;;;6.80;4.03;;;;;;;13.80;100.00;100349.66;677779;29;1199;-67
2023/08/09 00:17:04;;;;;;;7.07;4.00;;;;;;;13.89;100.00;100352.09;677173;29;1693;-67
2023/08/09 00:17:24;;;;;;;6.28;3.90;;;;;;;13.94;100.00;100360.72;678290;29;1031;-66
2023/08/09 00:17:45;;;;;;;5.97;3.63;;;;;;;13.98;100.00;100353.63;675179;29;1228;-67
2023/08/09 00:18:05;;;;;;;5.90;3.30;;;;;;;14.01;100.00;100350.06;675111;29;873;-67
2023/08/09 00:18:25;;;;;;;6.77;3.53;;;;;;;14.01;100.00;100350.94;676381;29;1001;-66
2023/08/09 00:18:46;;;;;;;7.57;3.70;;;;;;;13.95;100.00;100353.69;674967;29;4488;-66
2023/08/09 00:19:06;;;;;;;7.63;3.70;;;;;;;14.00;100.00;100348.31;679266;29;913;-68
2023/08/09 00:19:27;;;;;;;5.73;3.70;;;;;;;13.91;100.00;100347.63;676565;29;1036;-67
2023/08/09 00:19:47;;;;;;;5.65;3.78;;;;;;;13.88;100.00;100350.34;679769;29;799;-67
2023/08/09 00:20:08;;;;;;;7.47;3.83;;;;;;;13.90;100.00;100359.06;676794;29;1251;-66
2023/08/09 00:20:29;;;;;;;7.25;4.25;;;;;;;13.98;100.00;100360.66;675740;29;1084;-67
2023/08/09 00:20:49;;;;;;;6.13;3.60;;;;;;;14.02;100.00;100346.53;677421;29;850;-67
2023/08/09 00:21:10;;;;;;;6.23;3.87;;;;;;;14.06;100.00;100342.94;677348;29;798;-68
2023/08/09 00:21:31;;;;;;;7.28;4.10;;;;;;;14.11;100.00;100341.06;677894;29;1195;-68
2023/08/09 00:21:51;;;;;;;7.20;3.58;;;;;;;14.03;100.00;100348.28;678924;29;4372;-66
2023/08/09 00:22:12;;;;;;;6.25;3.42;;;;;;;14.01;100.00;100339.53;679636;29;1341;-67
2023/08/09 00:22:32;;;;;;;5.77;3.37;;;;;;;14.02;100.00;100344.75;678451;29;1003;-66
2023/08/09 00:22:53;;;;;;;7.15;3.75;;;;;;;14.03;100.00;100348.28;679977;29;1207;-66
2023/08/09 00:23:14;;;;;;;6.70;3.70;;;;;;;13.99;100.00;100351.88;679493;29;874;-66
2023/08/09 00:23:34;;;;;;;5.82;3.58;;;;;;;14.00;100.00;100351.84;677251;29;996;-66
2023/08/09 00:23:54;;;;;;;5.50;3.60;;;;;;;14.01;100.00;100350.94;680025;29;903;-66
2023/08/09 00:24:16;;;;;;;5.73;3.60;;;;;;;14.04;100.00;100345.59;681414;29;814;-68
2023/08/09 00:24:36;;;;;;;5.90;3.50;;;;;;;14.08;100.00;100354.25;679900;28;1960;-66
2023/08/09 00:24:56;;;;;;;7.22;3.88;;;;;;;14.02;100.00;100351.78;681341;28;4263;-66
2023/08/09 00:25:18;;;;;;;6.97;3.77;;;;;;;13.99;100.00;100351.88;680934;28;1405;-66
2023/08/09 00:25:38;;;;;;;6.75;3.67;;;;;;;14.09;100.00;100356.00;680331;29;1071;-67
2023/08/09 00:26:00;;;;;;;5.75;3.45;;;;;;;14.13;100.00;100352.41;680788;29;778;-68
2023/08/09 00:26:20;;;;;;;7.07;3.55;;;;;;;14.16;100.00;100352.31;677982;29;964;-67
2023/08/09 00:26:41;;;;;;;7.17;3.67;;;;;;;14.16;100.00;100351.47;676466;29;869;-67
2023/08/09 00:27:01;;;;;;;7.25;3.67;;;;;;;14.14;100.00;100341.84;678583;29;1520;-65
2023/08/09 00:27:22;;;;;;;6.55;3.50;;;;;;;14.08;100.00;100347.25;677846;29;878;-66
2023/08/09 00:27:43;;;;;;;7.13;3.67;;;;;;;14.05;100.00;100351.72;677753;29;4480;-65
2023/08/09 00:28:04;;;;;;;7.30;3.50;;;;;;;14.05;100.00;100347.34;679875;29;869;-67
2023/08/09 00:28:24;;;;;;;5.70;3.63;;;;;;;14.01;100.00;100344.81;679958;29;925;-65
2023/08/09 00:28:45;;;;;;;7.10;3.80;;;;;;;13.96;100.00;100348.41;674827;29;1316;-66
2023/08/09 00:29:05;;;;;;;6.53;3.85;;;;;;;13.98;100.00;100348.38;676481;29;874;-67
2023/08/09 00:29:25;;;;;;;6.13;3.60;;;;;;;14.06;100.00;100348.19;675972;29;1231;-66
2023/08/09 00:29:46;;;;;;;7.88;3.90;;;;;;;14.02;100.00;100352.66;675376;29;1168;-67
2023/08/09 00:30:11;;;;;;;7.03;3.88;;;;;;;14.08;100.00;100351.63;675442;29;1793;-66
2023/08/09 00:30:32;;;;;;;6.47;3.60;;;;;;;14.03;100.00;100349.13;675312;29;1412;-67
2023/08/09 00:30:52;;;;;;;7.30;3.90;;;;;;;13.99;100.00;100341.38;674956;29;4408;-67
2023/08/09 00:31:13;;;;;;;6.45;3.75;;;;;;;13.99;100.00;100349.25;677641;29;1233;-66
2023/08/09 00:31:33;;;;;;;5.23;3.60;;;;;;;13.99;100.00;100346.63;676517;29;1559;-68
2023/08/09 00:31:56;;;;;;;6.03;3.75;;;;;;;14.03;100.00;100343.03;677873;29;921;-67
2023/08/09 00:32:16;;;;;;;6.03;3.83;;;;;;;14.06;100.00;100342.94;678651;29;1124;-68
2023/08/09 00:32:39;;;;;;;6.85;3.60;;;;;;;13.95;100.00;100336.16;680861;29;1151;-68
2023/08/09 00:32:59;;;;;;;5.97;3.35;;;;;;;13.90;100.00;100338.06;681485;29;842;-68
2023/08/09 00:33:20;;;;;;;6.70;3.50;;;;;;;13.88;100.00;100345.09;678409;29;1694;-66
2023/08/09 00:33:40;;;;;;;7.07;3.63;;;;;;;13.88;100.00;100333.72;673792;29;4396;-67
2023/08/09 00:34:01;;;;;;;6.47;3.47;;;;;;;13.86;100.00;100341.66;677795;29;1333;-67
2023/08/09 00:34:21;;;;;;;5.32;3.33;;;;;;;13.90;100.00;100342.44;678687;29;1385;-68
2023/08/09 00:34:42;;;;;;;5.60;3.40;;;;;;;13.99;100.00;100344.84;678047;29;2001;-67
2023/08/09 00:35:03;;;;;;;5.60;3.67;;;;;;;13.96;100.00;100343.16;677299;29;886;-67
2023/08/09 00:35:24;;;;;;;6.78;3.72;;;;;;;14.05;100.00;100338.56;679189;29;1499;-68
2023/08/09 00:35:45;;;;;;;6.13;3.38;;;;;;;13.99;100.00;100346.63;678738;29;1182;-66
2023/08/09 00:36:05;;;;;;;6.28;3.50;;;;;;;14.01;100.00;100347.44;679755;29;1343;-67
2023/08/09 00:36:27;;;;;;;7.57;3.80;;;;;;;13.99;100.00;100342.22;679392;29;888;-67
2023/08/09 00:36:47;;;;;;;6.18;3.80;;;;;;;14.06;100.00;100341.16;677846;29;4493;-67
2023/08/09 00:37:08;;;;;;;6.75;3.83;;;;;;;14.07;100.00;100342.03;675797;29;1326;-67
2023/08/09 00:37:29;;;;;;;6.57;3.90;;;;;;;14.10;100.00;100340.19;673491;29;1269;-67
2023/08/09 00:37:50;;;;;;;5.87;3.70;;;;;;;14.08;100.00;100342.00;674945;29;1782;-67
2023/08/09 00:38:11;;;;;;;5.63;3.72;;;;;;;14.13;100.00;100349.75;674435;29;1789;-67
2023/08/09 00:38:32;;;;;;;5.60;3.40;;;;;;;14.16;100.00;100344.44;673196;29;1594;-68
2023/08/09 00:38:52;;;;;;;5.57;3.33;;;;;;;14.23;100.00;100343.41;674521;29;5527;-69
2023/08/09 00:39:13;;;;;;;6.40;3.50;;;;;;;14.22;100.00;100344.28;674145;29;802;-67
2023/08/09 00:39:33;;;;;;;5.73;3.37;;;;;;;14.14;100.00;100346.25;673963;29;1435;-67
2023/08/09 00:39:54;;;;;;;5.75;3.33;;;;;;;14.14;100.00;100346.25;676342;29;4773;-68
2023/08/09 00:40:14;;;;;;;6.00;3.40;;;;;;;14.18;100.00;100354.91;673281;29;1636;-67
2023/08/09 00:40:36;;;;;;;5.53;3.50;;;;;;;14.14;100.00;100351.50;676423;29;1199;-69
2023/08/09 00:40:56;;;;;;;6.03;3.63;;;;;;;14.22;100.00;100341.66;676337;29;2346;-69
2023/08/09 00:41:16;;;;;;;6.50;3.70;;;;;;;14.20;100.00;100339.97;676130;29;1253;-68
2023/08/09 00:41:37;;;;;;;5.67;3.60;;;;;;;14.18;100.00;100350.53;674164;29;1044;-68
2023/08/09 00:41:58;;;;;;;4.90;3.30;;;;;;;14.16;100.00;100344.44;675087;29;1252;-68
2023/08/09 00:42:18;;;;;;;5.30;3.20;;;;;;;14.12;100.00;100343.66;678114;29;1088;-68
2023/08/09 00:42:42;;;;;;;5.50;3.40;;;;;;;14.14;100.00;100338.34;675404;29;1347;-68
2023/08/09 00:43:03;;;;;;;6.80;3.53;;;;;;;14.12;100.00;100345.41;673970;29;4599;-68
2023/08/09 00:43:23;;;;;;;6.67;3.70;;;;;;;14.06;100.00;100345.56;672263;29;1150;-68
2023/08/09 00:43:43;;;;;;;5.32;3.55;;;;;;;14.03;100.00;100348.28;671370;29;1032;-68
2023/08/09 00:44:04;;;;;;;5.37;3.30;;;;;;;14.00;100.00;100343.06;673053;29;1517;-69
2023/08/09 00:44:24;;;;;;;5.75;3.50;;;;;;;14.09;100.00;100342.84;672728;29;1209;-69
2023/08/09 00:44:45;;;;;;;7.87;3.43;;;;;;;14.13;100.00;100355.88;670922;29;1147;-68
2023/08/09 00:45:07;;;;;;;8.82;3.53;;;;;;;14.19;100.00;100344.38;671966;29;1464;-68
2023/08/09 00:45:28;;;;;;;7.53;3.80;;;;;;;14.19;100.00;100338.22;671233;29;938;-68
2023/08/09 00:45:49;;;;;;;6.47;3.70;;;;;;;14.08;100.00;100349.00;674413;29;4322;-69
2023/08/09 00:46:10;;;;;;;5.82;3.72;;;;;;;14.10;100.00;100341.97;677258;29;752;-67
2023/08/09 00:46:30;;;;;;;6.57;3.75;;;;;;;14.06;100.00;100348.19;674969;29;1018;-68
2023/08/09 00:46:51;;;;;;;5.23;3.50;;;;;;;14.06;100.00;100348.19;679766;29;901;-68
2023/08/09 00:47:11;;;;;;;5.22;3.45;;;;;;;14.10;100.00;100347.22;678911;29;1366;-69
2023/08/09 00:47:34;;;;;;;6.60;3.60;;;;;;;14.16;100.00;100344.44;675193;29;1272;-68
2023/08/09 00:47:55;;;;;;;5.82;3.50;;;;;;;14.17;100.00;100337.44;677300;29;921;-68
2023/08/09 00:48:15;;;;;;;6.78;3.72;;;;;;;14.13;100.00;100341.88;677120;29;972;-68
2023/08/09 00:48:36;;;;;;;6.27;4.00;;;;;;;14.09;100.00;100341.06;673097;29;1381;-67
2023/08/09 00:48:56;;;;;;;7.30;3.92;;;;;;;14.04;100.00;100339.47;674692;29;4297;-68
2023/08/09 00:49:17;;;;;;;6.70;3.73;;;;;;;13.99;100.00;100350.09;677415;29;1274;-67
2023/08/09 00:49:37;;;;;;;6.47;3.78;;;;;;;13.98;100.00;100344.88;677802;29;1032;-67
2023/08/09 00:49:58;;;;;;;6.88;3.80;;;;;;;13.95;100.00;100345.81;679635;29;929;-67
2023/08/09 00:50:19;;;;;;;5.93;3.40;;;;;;;13.96;100.00;100335.25;680299;29;922;-68
2023/08/09 00:50:40;;;;;;;6.87;3.40;;;;;;;13.99;100.00;100342.22;679363;28;1184;-68
2023/08/09 00:51:01;;;;;;;6.10;3.75;;;;;;;13.93;100.00;100342.38;679624;29;1282;-68
2023/08/09 00:51:21;;;;;;;5.80;3.80;;;;;;;13.93;100.00;100339.75;679734;29;1413;-67
2023/08/09 00:51:42;;;;;;;6.35;3.80;;;;;;;13.95;100.00;100345.81;677538;28;4358;-67
2023/08/09 00:52:04;;;;;;;6.22;3.75;;;;;;;14.03;100.00;100332.50;679091;29;916;-68
2023/08/09 00:52:29;;;;;;;5.32;3.70;;;;;;;14.10;100.00;100339.34;675046;29;1450;-71
2023/08/09 00:52:50;;;;;;;5.80;3.88;;;;;;;14.06;100.00;100349.03;672548;29;1440;-68
2023/08/09 00:53:10;;;;;;;6.38;3.90;;;;;;;14.01;100.00;100348.31;675029;29;1350;-66
2023/08/09 00:53:31;;;;;;;6.67;3.83;;;;;;;13.97;100.00;100338.78;669990;29;1568;-66
2023/08/09 00:53:52;;;;;;;6.53;3.88;;;;;;;13.93;100.00;100337.13;671547;29;1265;-67
2023/08/09 00:54:13;;;;;;;7.05;3.88;;;;;;;13.91;100.00;100339.75;672025;29;1315;-67
2023/08/09 00:54:33;;;;;;;7.47;4.00;;;;;;;13.94;100.00;100350.22;671364;29;999;-67
2023/08/09 00:54:54;;;;;;;6.60;4.00;;;;;;;13.95;100.00;100346.66;671011;29;4487;-64
2023/08/09 00:55:15;;;;;;;5.60;3.60;;;;;;;13.92;100.00;100338.88;672094;29;1134;-67
2023/08/09 00:55:35;;;;;;;6.88;3.78;;;;;;;14.01;100.00;100344.81;672393;29;1139;-67
2023/08/09 00:55:56;;;;;;;6.70;4.20;;;;;;;14.04;100.00;100344.72;673409;29;1203;-67
2023/08/09 00:56:16;;;;;;;6.07;4.10;;;;;;;14.09;100.00;100348.13;675933;29;1176;-68
2023/08/09 00:56:37;;;;;;;6.53;4.27;;;;;;;14.11;100.00;100344.53;672550;29;898;-68
2023/08/09 00:56:57;;;;;;;7.65;4.05;;;;;;;14.05;100.00;100344.72;677411;29;897;-68
2023/08/09 00:57:19;;;;;;;6.28;4.13;;;;;;;14.06;100.00;100345.56;679717;29;1325;-66
2023/08/09 00:57:39;;;;;;;6.43;4.05;;;;;;;14.04;100.00;100344.72;678645;29;1238;-66
2023/08/09 00:58:00;;;;;;;6.47;4.30;;;;;;;14.06;100.00;100349.03;678215;29;4253;-67
2023/08/09 00:58:20;;;;;;;6.17;3.80;;;;;;;14.11;100.00;100343.69;679770;29;874;-66
2023/08/09 00:58:41;;;;;;;6.40;3.90;;;;;;;14.08;100.00;100346.38;678461;29;1024;-66
2023/08/09 00:59:02;;;;;;;5.60;3.83;;;;;;;14.10;100.00;100344.59;678433;29;1589;-68
2023/08/09 00:59:23;;;;;;;6.78;4.10;;;;;;;14.14;100.00;100347.09;678889;29;1249;-67
2023/08/09 00:59:43;;;;;;;6.27;3.80;;;;;;;14.17;100.00;100346.16;678446;29;1089;-67
2023/08/09 01:00:05;;;;;;;6.40;3.78;;;;;;;14.12;100.00;100342.78;676703;29;1273;-66
2023/08/09 01:00:25;;;;;;;6.30;3.67;;;;;;;14.12;100.00;100341.03;676245;29;1304;-67
2023/08/09 01:00:46;;;;;;;7.10;3.80;;;;;;;14.18;100.00;100342.63;675571;29;4571;-66
2023/08/09 01:01:06;;;;;;;7.70;4.20;;;;;;;14.21;100.00;100342.56;677456;29;1341;-66
2023/08/09 01:01:27;;;;;;;8.00;4.05;;;;;;;14.19;100.00;100343.50;674334;29;1441;-66
2023/08/09 01:01:49;;;;;;;7.18;4.38;;;;;;;14.23;100.00;100340.75;674527;29;1545;-66
2023/08/09 01:02:10;;;;;;;6.77;4.50;;;;;;;14.26;100.00;100335.44;675463;29;1229;-68
2023/08/09 01:02:33;;;;;;;6.20;4.20;;;;;;;14.22;100.00;100344.28;677726;29;1118;-67
2023/08/09 01:02:54;;;;;;;6.88;4.03;;;;;;;14.20;100.00;100345.22;675657;29;984;-66
2023/08/09 01:03:14;;;;;;;7.15;4.20;;;;;;;14.16;100.00;100344.44;676699;29;1537;-66
2023/08/09 01:03:35;;;;;;;7.07;4.10;;;;;;;14.22;100.00;100341.66;677269;29;1133;-66
2023/08/09 01:03:56;;;;;;;6.22;4.05;;;;;;;14.19;100.00;100340.84;679015;28;4292;-66
2023/08/09 01:04:17;;;;;;;7.28;4.30;;;;;;;14.24;100.00;100331.94;678517;29;1359;-67
2023/08/09 01:04:38;;;;;;;6.60;4.00;;;;;;;14.26;100.00;100337.16;675828;29;1318;-67
2023/08/09 01:04:59;;;;;;;6.78;3.92;;;;;;;14.18;100.00;100341.75;677013;29;858;-67
2023/08/09 01:05:23;;;;;;;7.20;4.03;;;;;;;14.21;100.00;100336.44;676863;29;1444;-68
2023/08/09 01:06:06;;;;;;;7.03;4.10;;;;;;;14.16;100.00;100339.16;673695;29;1576;-66
2023/08/09 01:06:31;;;;;;;6.68;4.10;;;;;;;14.12;100.00;100345.41;671809;29;874;-68
2023/08/09 01:07:09;;;;;;;6.18;4.05;;;;;;;14.20;100.00;100346.06;671907;29;4268;-66
2023/08/09 01:08:00;;;;;;;6.85;4.07;;;;;;;14.16;100.00;100347.06;674156;29;963;-67
2023/08/09 01:08:38;;;;;;;6.35;4.15;;;;;;;14.16;100.00;100347.06;677132;29;1340;-66
2023/08/09 01:09:21;;;;;;;6.97;4.32;;;;;;;14.17;100.00;100345.31;679628;29;874;-66
2023/08/09 01:09:55;;;;;;;7.00;4.25;;;;;;;14.16;100.00;100347.06;677839;29;4588;-66
2023/08/09 01:10:31;;;;;;;7.47;4.30;;;;;;;14.09;100.00;100348.13;677193;29;1357;-66
2023/08/09 01:11:05;;;;;;;8.32;4.32;;;;;;;14.13;100.00;100342.72;679659;29;822;-66
2023/08/09 01:11:43;;;;;;;7.65;4.75;;;;;;;14.08;100.00;100346.38;676454;29;925;-66
2023/08/09 01:12:14;;;;;;;6.85;4.60;;;;;;;14.02;100.00;100351.78;676890;29;1511;-66
2023/08/09 01:12:41;;;;;;;6.47;4.38;;;;;;;14.18;100.00;100331.25;676778;29;3676;-69
2023/08/09 01:13:06;;;;;;;6.65;4.60;;;;;;;14.15;100.00;100347.97;678781;29;4928;-67
2023/08/09 01:13:27;;;;;;;7.40;4.60;;;;;;;14.10;100.00;100344.59;681534;29;1474;-66
2023/08/09 01:13:52;;;;;;;6.90;4.70;;;;;;;14.04;100.00;100349.97;678304;29;2397;-67
2023/08/09 01:14:15;;;;;;;8.07;4.90;;;;;;;14.07;100.00;100349.94;680024;29;818;-66
2023/08/09 01:14:40;;;;;;;9.57;5.13;;;;;;;14.08;100.00;100351.63;677366;29;1927;-66
2023/08/09 01:15:03;;;;;;;8.15;5.43;;;;;;;14.07;100.00;100352.56;676036;29;1480;-67
2023/08/09 01:15:25;;;;;;;6.63;4.70;;;;;;;14.14;100.00;100354.97;675477;29;1209;-67
2023/08/09 01:15:49;;;;;;;7.03;4.78;;;;;;;14.20;100.00;100358.38;677498;29;4318;-65
2023/08/09 01:16:11;;;;;;;7.30;5.03;;;;;;;14.23;100.00;100345.13;679794;29;838;-67
2023/08/09 01:16:33;;;;;;;8.35;4.80;;;;;;;14.16;100.00;100349.69;677845;29;1552;-67
2023/08/09 01:16:55;;;;;;;7.45;4.80;;;;;;;14.11;100.00;100356.84;675923;29;1569;-67
2023/08/09 01:17:17;;;;;;;7.65;5.10;;;;;;;14.09;100.00;100359.47;674968;29;1966;-67
2023/08/09 01:17:40;;;;;;;9.52;5.57;;;;;;;14.16;100.00;100354.94;673089;29;1467;-69
2023/08/09 01:18:02;;;;;;;8.35;5.28;;;;;;;14.12;100.00;100366.44;674140;29;956;-72
2023/08/09 01:18:26;;;;;;;6.30;4.90;;;;;;;14.12;100.00;100369.94;675756;29;1265;-67
2023/08/09 01:18:48;;;;;;;7.63;4.97;;;;;;;14.10;100.00;100373.50;673988;29;4617;-68
2023/08/09 01:19:11;;;;;;;8.18;4.90;;;;;;;14.10;100.00;100371.72;676894;29;1032;-68
2023/08/09 01:19:48;;;;;;;8.13;4.88;;;;;;;14.17;100.00;100361.94;673820;29;2235;-69
2023/08/09 01:20:12;;;;;;;7.57;4.90;;;;;;;14.14;100.00;100368.13;676023;29;1227;-69
2023/08/09 01:20:33;;;;;;;8.18;5.20;;;;;;;14.14;100.00;100368.13;676160;29;2333;-66
2023/08/09 01:20:54;;;;;;;7.95;5.20;;;;;;;14.12;100.00;100369.06;679196;29;830;-66
2023/08/09 01:21:21;;;;;;;7.97;5.18;;;;;;;14.09;100.00;100384.91;679588;29;841;-64
2023/08/09 01:21:43;;;;;;;7.55;4.43;;;;;;;14.13;100.00;100368.16;675051;29;4635;-62
2023/08/09 01:22:13;;;;;;;7.50;4.13;;;;;;;14.15;100.00;100371.63;677633;29;1490;-68
2023/08/09 01:22:35;;;;;;;5.30;3.58;;;;;;;14.12;100.00;100376.94;676900;29;952;-66
2023/08/09 01:23:02;;;;;;;6.05;3.90;;;;;;;14.11;100.00;100373.47;678812;29;1380;-66
2023/08/09 01:23:31;;;;;;;7.07;4.18;;;;;;;14.14;100.00;100375.16;678058;29;2209;-67
2023/08/09 01:23:52;;;;;;;7.05;4.30;;;;;;;14.16;100.00;100381.22;680017;29;1289;-65
2023/08/09 01:24:12;;;;;;;7.05;4.25;;;;;;;14.16;100.00;100381.22;677827;29;1248;-67
2023/08/09 01:24:33;;;;;;;6.30;3.90;;;;;;;14.23;100.00;100377.56;673326;29;1685;-68
2023/08/09 01:25:00;;;;;;;6.03;3.65;;;;;;;14.23;100.00;100380.19;673794;29;4766;-69
2023/08/09 01:25:21;;;;;;;5.75;3.00;;;;;;;14.13;100.00;100384.78;671484;29;1273;-67
2023/08/09 01:25:43;;;;;;;6.57;3.00;;;;;;;14.07;100.00;100386.72;674708;29;2330;-68
2023/08/09 01:26:04;;;;;;;5.43;2.55;;;;;;;14.06;100.00;100379.72;676446;29;1345;-68
2023/08/09 01:26:25;;;;;;;5.22;2.70;;;;;;;14.08;100.00;100381.44;676415;29;1434;-67
2023/08/09 01:26:45;;;;;;;6.13;2.83;;;;;;;14.05;100.00;100381.50;675404;29;2204;-68
2023/08/09 01:27:06;;;;;;;5.78;2.92;;;;;;;14.06;100.00;100387.63;676119;29;1096;-68
2023/08/09 01:27:26;;;;;;;5.30;3.03;;;;;;;14.08;100.00;100385.81;676360;29;874;-67
2023/08/09 01:27:46;;;;;;;6.20;3.10;;;;;;;14.03;100.00;100385.91;675348;29;4404;-68
2023/08/09 01:28:07;;;;;;;6.10;2.70;;;;;;;14.03;100.00;100385.06;677286;29;1651;-68
2023/08/09 01:28:28;;;;;;;5.05;2.70;;;;;;;14.03;100.00;100385.06;679119;29;850;-68
2023/08/09 01:28:48;;;;;;;4.40;2.50;;;;;;;14.04;100.00;100386.78;675914;29;1264;-67
2023/08/09 01:29:08;;;;;;;5.28;2.80;;;;;;;14.03;100.00;100387.69;675960;29;886;-67
2023/08/09 01:29:29;;;;;;;5.60;2.83;;;;;;;13.95;100.00;100386.09;676627;29;1260;-67
2023/08/09 01:29:50;;;;;;;4.10;2.47;;;;;;;13.92;100.00;100383.53;678487;29;823;-67
2023/08/09 01:30:11;;;;;;;3.93;2.40;;;;;;;13.90;100.00;100390.59;675829;29;1470;-67
2023/08/09 01:30:31;;;;;;;4.10;2.58;;;;;;;13.89;100.00;100378.34;674161;29;1492;-71
2023/08/09 01:30:52;;;;;;;4.15;2.60;;;;;;;13.84;100.00;100385.47;675216;29;4372;-68
2023/08/09 01:31:12;;;;;;;4.82;2.58;;;;;;;13.81;100.00;100388.19;678087;29;1371;-67
2023/08/09 01:31:33;;;;;;;4.43;2.43;;;;;;;13.77;100.00;100384.75;677410;29;2140;-67
2023/08/09 01:31:53;;;;;;;4.67;2.60;;;;;;;13.79;100.00;100377.72;676632;29;902;-68
2023/08/09 01:32:13;;;;;;;6.57;2.63;;;;;;;13.79;100.00;100388.22;677961;29;1140;-67
2023/08/09 01:32:34;;;;;;;5.10;2.60;;;;;;;13.81;100.00;100395.22;677858;29;1504;-67
2023/08/09 01:32:55;;;;;;;4.93;2.80;;;;;;;13.78;100.00;100385.63;677857;29;1320;-66
2023/08/09 01:33:16;;;;;;;4.75;2.83;;;;;;;13.73;100.00;100387.47;674398;29;858;-67
2023/08/09 01:33:36;;;;;;;3.90;2.30;;;;;;;13.77;100.00;100383.88;672904;29;1839;-67
2023/08/09 01:33:57;;;;;;;5.50;2.78;;;;;;;13.82;100.00;100386.41;670607;29;4338;-67
2023/08/09 01:34:18;;;;;;;5.97;2.87;;;;;;;13.77;100.00;100382.13;671839;29;870;-67
2023/08/09 01:34:39;;;;;;;5.13;2.67;;;;;;;13.73;100.00;100390.13;670702;29;1921;-67
2023/08/09 01:35:00;;;;;;;6.65;3.10;;;;;;;13.68;100.00;100374.47;672417;29;918;-67
2023/08/09 01:35:22;;;;;;;5.38;2.72;;;;;;;13.65;100.00;100384.16;678258;29;850;-67
2023/08/09 01:35:53;;;;;;;5.53;2.80;;;;;;;13.66;100.00;100391.16;677576;29;2254;-67
2023/08/09 01:36:23;;;;;;;5.55;2.80;;;;;;;13.61;100.00;100383.38;679065;29;1412;-66
2023/08/09 01:36:50;;;;;;;3.80;2.60;;;;;;;13.55;100.00;100389.59;679611;29;4496;-67
2023/08/09 01:37:44;;;;;;;4.70;3.05;;;;;;;13.54;100.00;100387.00;680443;29;1459;-66
2023/08/09 01:38:10;;;;;;;5.18;2.70;;;;;;;13.51;100.00;100381.84;680647;29;968;-67
2023/08/09 01:38:37;;;;;;;5.28;2.80;;;;;;;13.49;100.00;100389.75;678285;29;2168;-66
2023/08/09 01:39:06;;;;;;;4.35;2.83;;;;;;;13.47;100.00;100383.66;676507;29;5809;-66
2023/08/09 01:39:32;;;;;;;5.10;3.20;;;;;;;13.50;100.00;100391.50;676947;29;905;-66
2023/08/09 01:39:57;;;;;;;5.07;2.70;;;;;;;13.59;100.00;100382.53;671876;29;4508;-66
2023/08/09 01:40:18;;;;;;;4.35;2.80;;;;;;;13.67;100.00;100383.22;673625;29;1021;-67
2023/08/09 01:40:39;;;;;;;4.85;2.95;;;;;;;13.70;100.00;100384.94;675843;29;1795;-66
2023/08/09 01:41:00;;;;;;;4.57;2.90;;;;;;;13.71;100.00;100384.03;679408;29;1434;-67
2023/08/09 01:41:21;;;;;;;4.80;2.92;;;;;;;13.69;100.00;100377.94;677471;29;851;-67
2023/08/09 01:41:45;;;;;;;5.90;3.30;;;;;;;13.67;100.00;100383.22;677361;29;1831;-66
2023/08/09 01:42:07;;;;;;;5.00;3.00;;;;;;;13.63;100.00;100379.81;680334;29;854;-67
2023/08/09 01:42:29;;;;;;;5.03;3.05;;;;;;;13.63;100.00;100392.94;680832;28;1171;-67
2023/08/09 01:42:51;;;;;;;4.50;3.10;;;;;;;13.60;100.00;100385.13;677711;29;4480;-66
2023/08/09 01:43:12;;;;;;;4.32;2.80;;;;;;;13.57;100.00;100387.81;677240;29;1044;-66
2023/08/09 01:43:33;;;;;;;4.78;2.92;;;;;;;13.53;100.00;100385.31;677971;29;1768;-66
2023/08/09 01:43:55;;;;;;;5.80;3.10;;;;;;;13.53;100.00;100391.41;676462;29;1358;-67
2023/08/09 01:44:16;;;;;;;5.03;3.00;;;;;;;13.51;100.00;100389.72;676766;29;850;-66
2023/08/09 01:44:38;;;;;;;5.35;2.90;;;;;;;13.48;100.00;100390.63;671392;29;1909;-66